ADDS METAR Data INFO
IDs: Format: Raw Decoded Include TAF

Data at: 0900 UTC 20 Oct 2017

KOTM 200853Z AUTO 19007KT 10SM CLR 12/09 A3007 RMK AO2 SLP178 T01220094 51005
KOTM 200753Z AUTO 19008KT 10SM CLR 13/10 A3006 RMK AO2 SLP177 T01330100
KOTM 200653Z AUTO 19009KT 10SM CLR 14/10 A3006 RMK AO2 SLP177 T01440100
KOTM 200553Z AUTO 18009KT 10SM CLR 15/11 A3005 RMK AO2 SLP173 T01500106 10178 20144 402390078 58004
KOTM 200453Z AUTO 18008KT 10SM CLR 14/11 A3006 RMK AO2 SLP177 T01440106
KOTM 200353Z AUTO 18008KT 10SM CLR 16/11 A3006 RMK AO2 SLP177 T01560106
KOTM 200253Z AUTO 17008KT 10SM CLR 17/11 A3006 RMK AO2 SLP178 T01720111 50000
KOTM 200153Z AUTO 16008KT 10SM CLR 17/12 A3006 RMK AO2 SLP179 T01670117
KOTM 200053Z AUTO 16006KT 10SM CLR 17/12 A3007 RMK AO2 SLP182 T01670117
KOTM 192353Z AUTO 14006KT 10SM CLR 18/12 A3006 RMK AO2 SLP179 T01830122 10239 20178 55003
KOTM 192253Z AUTO 15006KT 10SM CLR 21/13 A3005 RMK AO2 SLP175 T02110128
KOTM 192153Z AUTO 15010KT 10SM CLR 24/13 A3006 RMK AO2 SLP177 T02390128
KOTM 192053Z AUTO 14010KT 10SM CLR 24/13 A3007 RMK AO2 SLP181 T02390128 56018
KOTM 191953Z AUTO 14010KT 10SM CLR 23/13 A3008 RMK AO2 SLP185 T02330128
KOTM 191853Z AUTO 12009KT 10SM CLR 22/12 A3010 RMK AO2 SLP192 T02220117
KOTM 191753Z AUTO 16008KT 10SM CLR 22/11 A3012 RMK AO2 SLP199 T02170111 10217 20094 58006
KOTM 191653Z AUTO 12008KT 10SM CLR 20/11 A3014 RMK AO2 SLP205 T02000106
KOTM 191553Z AUTO 10010KT 10SM CLR 18/06 A3015 RMK AO2 SLP208 T01830056
KOTM 191453Z AUTO 11011KT 10SM CLR 15/06 A3014 RMK AO2 SLP207 T01500056 51013
KOTM 191353Z AUTO 08008KT 10SM CLR 12/06 A3014 RMK AO2 SLP205 T01170061
KOTM 191253Z AUTO 06008KT 10SM CLR 10/06 A3011 RMK AO2 SLP197 T01000061
KOTM 191153Z AUTO 05007KT 10SM CLR 10/07 A3010 RMK AO2 SLP194 T01000067 10117 20078 51013
KOTM 191053Z AUTO 01005KT 10SM CLR 10/08 A3009 RMK AO2 SLP189 T01000078
KOTM 190953Z AUTO 33003KT 10SM CLR 10/08 A3008 RMK AO2 SLP184 T01000083
KOTM 190853Z AUTO 00000KT 10SM CLR 10/08 A3007 RMK AO2 SLP179 T01000083 52010
KOTM 190753Z AUTO 23003KT 10SM CLR 09/08 A3005 RMK AO2 SLP174 T00940078
KOTM 190653Z AUTO 21005KT 10SM CLR 10/08 A3005 RMK AO2 SLP173 T01000083
KOTM 190553Z AUTO 21007KT 10SM CLR 11/09 A3003 RMK AO2 SLP168 T01110089 10172 20111 402330100 55002
KOTM 190453Z AUTO 20006KT 10SM CLR 12/09 A3003 RMK AO2 SLP169 T01170089
KOTM 190353Z AUTO 20008KT 10SM CLR 13/09 A3004 RMK AO2 SLP170 T01280089
KOTM 190253Z AUTO 20005KT 10SM CLR 13/09 A3004 RMK AO2 SLP172 T01280089 51016
KOTM 190153Z AUTO 21005KT 10SM CLR 14/09 A3003 RMK AO2 SLP169 T01390089
KOTM 190053Z AUTO 20006KT 10SM CLR 15/09 A3001 RMK AO2 SLP163 T01500089
KOTM 182353Z AUTO 18005KT 10SM CLR 17/09 A2999 RMK AO2 SLP156 T01670089 10233 20161 53013
KOTM 182253Z AUTO 19007KT 10SM CLR 21/09 A2997 RMK AO2 SLP148 T02060089
KOTM 182153Z AUTO 19012G21KT 10SM CLR 23/09 A2996 RMK AO2 SLP144 T02280089